Time;durP1;ratioP1;P1;durP2;ratioP2;P2;SDS_P1;SDS_P2;PMS_P1;PMS_P2;Temp;Humidity;BMP_temperature;BMP_pressure;BME280_temperature;BME280_humidity;BME280_pressure;Samples;Min_cycle;Max_cycle;Signal;HPM_P1;HPM_P2
2023/03/15 00:01:17;;;;;;;3.03;0.50;;;3.20;99.90;;;;;;5007628;28;20045;-72
2023/03/15 00:03:43;;;;;;;1.65;0.85;;;3.10;99.90;;;;;;5004274;28;20467;-71
2023/03/15 00:06:09;;;;;;;2.33;0.20;;;3.00;99.90;;;;;;5004258;28;20034;-73
2023/03/15 00:08:34;;;;;;;2.92;0.43;;;3.00;99.90;;;;;;5002248;28;20049;-72
2023/03/15 00:11:00;;;;;;;1.40;0.20;;;2.90;99.90;;;;;;5002761;28;20672;-72
2023/03/15 00:13:26;;;;;;;2.10;0.20;;;2.90;99.90;;;;;;5004242;28;20057;-71
2023/03/15 00:15:56;;;;;;;4.80;0.32;;;2.90;99.90;;;;;;4998006;28;20057;-71
2023/03/15 00:18:22;;;;;;;1.13;0.30;;;2.90;99.90;;;;;;4999070;28;20053;-71
2023/03/15 00:20:47;;;;;;;1.10;0.30;;;2.80;99.90;;;;;;5002370;28;20029;-72
2023/03/15 00:23:14;;;;;;;2.55;0.20;;;2.80;99.90;;;;;;5006507;28;20503;-70
2023/03/15 00:25:42;;;;;;;0.93;0.30;;;2.70;99.90;;;;;;5000288;28;20038;-72
2023/03/15 00:28:07;;;;;;;4.15;0.32;;;2.70;99.90;;;;;;5005599;28;20022;-70
2023/03/15 00:30:33;;;;;;;3.22;0.35;;;2.70;99.90;;;;;;5003606;28;20045;-71
2023/03/15 00:32:59;;;;;;;1.92;0.28;;;2.70;99.90;;;;;;5002833;28;20348;-72
2023/03/15 00:35:24;;;;;;;0.70;0.13;;;2.70;99.90;;;;;;5001664;28;20037;-72
2023/03/15 00:37:54;;;;;;;1.80;0.32;;;2.60;99.90;;;;;;5000590;28;20114;-71
2023/03/15 00:40:21;;;;;;;1.17;0.28;;;2.60;99.90;;;;;;5002161;28;20463;-71
2023/03/15 00:42:49;;;;;;;2.35;0.30;;;2.60;99.90;;;;;;5013899;28;20029;-72
2023/03/15 00:45:16;;;;;;;1.23;0.30;;;2.70;99.90;;;;;;5000226;28;20033;-73
2023/03/15 00:47:42;;;;;;;2.05;0.32;;;2.70;99.90;;;;;;4999185;28;20035;-72
2023/03/15 00:50:08;;;;;;;1.85;0.10;;;2.70;99.90;;;;;;4995954;28;20037;-74
2023/03/15 00:52:35;;;;;;;0.75;0.20;;;2.70;99.90;;;;;;4997295;28;20022;-73
2023/03/15 00:55:01;;;;;;;1.83;0.30;;;2.70;99.90;;;;;;4997287;28;20476;-71
2023/03/15 00:57:26;;;;;;;2.20;0.40;;;2.70;99.90;;;;;;4998222;28;20026;-71
2023/03/15 00:59:55;;;;;;;2.28;0.30;;;2.70;99.90;;;;;;5001253;28;20057;-71
2023/03/15 01:02:21;;;;;;;2.40;0.38;;;2.70;99.90;;;;;;4995506;28;20039;-71
2023/03/15 01:04:48;;;;;;;1.85;0.38;;;2.70;99.90;;;;;;4998408;28;20052;-71
2023/03/15 01:07:13;;;;;;;0.40;0.10;;;2.70;99.90;;;;;;5001346;28;20114;-71
2023/03/15 01:09:40;;;;;;;1.33;0.38;;;2.80;99.90;;;;;;4999495;28;20129;-71
2023/03/15 01:12:06;;;;;;;1.98;0.30;;;2.90;99.90;;;;;;4995148;28;20113;-72
2023/03/15 01:14:34;;;;;;;2.47;0.30;;;2.90;99.90;;;;;;4999945;28;20690;-71
2023/03/15 01:17:09;;;;;;;1.60;0.30;;;2.90;99.90;;;;;;4999897;28;20042;-71
2023/03/15 01:19:34;;;;;;;2.05;0.25;;;3.00;99.90;;;;;;5000353;28;20138;-71
2023/03/15 01:22:00;;;;;;;2.00;0.20;;;3.00;99.90;;;;;;4999374;28;20125;-71
2023/03/15 01:24:25;;;;;;;5.35;0.30;;;3.00;99.90;;;;;;4993907;28;20049;-72
2023/03/15 01:26:51;;;;;;;5.25;0.30;;;3.00;99.90;;;;;;5005503;28;20034;-73
2023/03/15 01:29:17;;;;;;;1.45;0.35;;;3.00;99.90;;;;;;4997309;28;20122;-71
2023/03/15 01:31:42;;;;;;;2.67;0.60;;;3.10;99.90;;;;;;5001806;28;20500;-74
2023/03/15 01:34:08;;;;;;;0.70;0.38;;;3.10;99.90;;;;;;5005860;28;20437;-71
2023/03/15 01:36:34;;;;;;;3.92;0.52;;;3.10;99.90;;;;;;4996960;28;20081;-73
2023/03/15 01:38:59;;;;;;;3.67;0.38;;;3.10;99.90;;;;;;5001572;28;20042;-73
2023/03/15 01:41:26;;;;;;;1.25;0.30;;;3.10;99.90;;;;;;4998200;28;20042;-72
2023/03/15 01:43:52;;;;;;;2.75;0.38;;;3.20;99.90;;;;;;4997625;28;20084;-72
2023/03/15 01:46:22;;;;;;;2.35;0.22;;;3.20;99.90;;;;;;4998231;28;20126;-73
2023/03/15 01:49:27;;;;;;;3.22;0.38;;;3.20;99.90;;;;;;5011311;28;20375;-72
2023/03/15 01:52:04;;;;;;;2.97;0.65;;;3.20;99.90;;;;;;4999684;28;20512;-71
2023/03/15 01:54:32;;;;;;;1.58;0.30;;;3.20;99.90;;;;;;4992875;28;20061;-71
2023/03/15 01:57:16;;;;;;;1.23;0.40;;;3.10;99.90;;;;;;5001752;28;20057;-71
2023/03/15 02:00:10;;;;;;;4.13;1.10;;;3.10;99.90;;;;;;4993208;28;20825;-71
2023/03/15 02:02:45;;;;;;;1.30;0.20;;;3.00;99.90;;;;;;5000534;28;20457;-71
2023/03/15 02:05:17;;;;;;;2.33;0.10;;;2.90;99.90;;;;;;4996385;28;20516;-71
2023/03/15 02:07:48;;;;;;;2.10;0.30;;;2.90;99.90;;;;;;4993329;28;22268;-72
2023/03/15 02:10:19;;;;;;;0.95;0.10;;;2.90;99.90;;;;;;4996070;28;20107;-72
2023/03/15 02:12:48;;;;;;;;;;;2.80;99.90;;;;;;4995330;28;20541;-71
2023/03/15 02:15:14;;;;;;;0.10;0.10;;;2.80;99.90;;;;;;4996293;28;20385;-72
2023/03/15 02:17:43;;;;;;;1.60;0.10;;;2.70;99.90;;;;;;5008976;28;20064;-71
2023/03/15 02:20:28;;;;;;;0.47;0.10;;;2.70;99.90;;;;;;5002837;28;20048;-71
2023/03/15 02:22:57;;;;;;;1.88;0.40;;;2.60;99.90;;;;;;5011494;28;20097;-71
2023/03/15 02:25:56;;;;;;;1.58;0.93;;;2.60;99.90;;;;;;5000592;28;20052;-73
2023/03/15 02:28:22;;;;;;;1.15;0.10;;;2.60;99.90;;;;;;4997144;28;20045;-72
2023/03/15 02:30:49;;;;;;;0.55;0.38;;;2.50;99.90;;;;;;4998786;28;20118;-71
2023/03/15 02:33:28;;;;;;;3.10;0.10;;;2.50;99.90;;;;;;5001406;28;20041;-71
2023/03/15 02:35:54;;;;;;;1.17;0.28;;;2.50;99.90;;;;;;5001844;28;20572;-72
2023/03/15 02:38:24;;;;;;;0.82;0.20;;;2.40;99.90;;;;;;5000742;28;20034;-72
2023/03/15 02:40:52;;;;;;;3.10;0.38;;;2.40;99.90;;;;;;5003238;28;20030;-71
2023/03/15 02:43:22;;;;;;;0.75;0.30;;;2.40;99.90;;;;;;5021957;28;20030;-71
2023/03/15 02:45:48;;;;;;;8.85;1.27;;;2.40;99.90;;;;;;4997848;28;20038;-72
2023/03/15 02:48:15;;;;;;;3.47;0.30;;;2.40;99.90;;;;;;5001389;28;20380;-72
2023/03/15 02:50:41;;;;;;;0.85;0.20;;;2.40;99.90;;;;;;4997230;28;20049;-72
2023/03/15 02:53:07;;;;;;;0.85;0.20;;;2.40;99.90;;;;;;4998276;28;20029;-72
2023/03/15 02:55:33;;;;;;;4.03;0.25;;;2.50;99.90;;;;;;4995711;28;20037;-72
2023/03/15 02:57:59;;;;;;;6.00;0.52;;;2.50;99.90;;;;;;5001937;28;20099;-72
2023/03/15 03:00:25;;;;;;;3.13;0.63;;;2.50;99.90;;;;;;5000964;28;20121;-73
2023/03/15 03:02:50;;;;;;;3.08;0.45;;;2.50;99.90;;;;;;5004327;28;20113;-71
2023/03/15 03:05:16;;;;;;;0.90;0.30;;;2.50;99.90;;;;;;5002217;28;20888;-72
2023/03/15 03:07:43;;;;;;;0.45;0.30;;;2.50;99.90;;;;;;5005914;28;20096;-72
2023/03/15 03:10:10;;;;;;;3.33;0.47;;;2.40;99.90;;;;;;5000541;28;20034;-73
2023/03/15 03:12:36;;;;;;;1.52;0.30;;;2.40;99.90;;;;;;4999377;28;20062;-71
2023/03/15 03:15:03;;;;;;;2.13;0.30;;;2.40;99.90;;;;;;5001058;28;20056;-72
2023/03/15 03:17:29;;;;;;;1.10;0.10;;;2.30;99.90;;;;;;5019341;28;20030;-71
2023/03/15 03:19:55;;;;;;;1.02;0.30;;;2.30;99.90;;;;;;5003238;28;20037;-71
2023/03/15 03:22:23;;;;;;;2.97;0.30;;;2.20;99.90;;;;;;5022282;28;20524;-73
2023/03/15 03:24:49;;;;;;;1.65;0.60;;;2.10;99.90;;;;;;5003383;28;20040;-72
2023/03/15 03:27:16;;;;;;;0.60;0.20;;;2.10;99.90;;;;;;5000330;28;20461;-72
2023/03/15 03:29:42;;;;;;;3.25;0.38;;;2.00;99.90;;;;;;5001987;28;20663;-72
2023/03/15 03:32:08;;;;;;;3.13;0.43;;;2.00;99.90;;;;;;4998888;28;20033;-72
2023/03/15 03:34:34;;;;;;;0.75;0.30;;;2.00;99.90;;;;;;4998511;28;20026;-72
2023/03/15 03:36:59;;;;;;;0.70;0.35;;;1.90;99.90;;;;;;5001809;28;20437;-73
2023/03/15 03:39:25;;;;;;;4.00;1.02;;;1.90;99.90;;;;;;5008132;28;20034;-71
2023/03/15 03:41:51;;;;;;;2.30;0.80;;;1.90;99.90;;;;;;4998584;28;20288;-73
2023/03/15 03:44:16;;;;;;;2.15;0.50;;;1.90;99.90;;;;;;4999319;28;20038;-72
2023/03/15 03:46:42;;;;;;;2.47;0.50;;;1.80;99.90;;;;;;5001543;28;20772;-73
2023/03/15 03:49:10;;;;;;;1.23;0.30;;;1.90;99.90;;;;;;5002672;28;20071;-71
2023/03/15 03:51:40;;;;;;;0.98;0.60;;;1.90;99.90;;;;;;4997513;28;20038;-71
2023/03/15 03:54:05;;;;;;;1.70;0.30;;;1.90;99.90;;;;;;5002120;28;20110;-74
2023/03/15 03:56:31;;;;;;;2.65;0.43;;;2.00;99.90;;;;;;4997503;28;20198;-74
2023/03/15 03:58:57;;;;;;;1.52;0.60;;;2.10;99.90;;;;;;4999472;28;20034;-73
2023/03/15 04:01:22;;;;;;;2.50;0.40;;;2.10;99.90;;;;;;4996018;28;20083;-72
2023/03/15 04:03:51;;;;;;;1.13;0.60;;;2.20;99.90;;;;;;5012133;28;20137;-73
2023/03/15 04:06:17;;;;;;;2.33;0.40;;;2.20;99.90;;;;;;5000369;28;20180;-75
2023/03/15 04:08:42;;;;;;;2.75;0.80;;;2.30;99.90;;;;;;4999771;28;20677;-72
2023/03/15 04:11:08;;;;;;;2.60;0.60;;;2.40;99.90;;;;;;4998179;28;20474;-74
2023/03/15 04:13:33;;;;;;;3.25;0.50;;;2.40;99.90;;;;;;4998677;28;20042;-74
2023/03/15 04:16:01;;;;;;;1.23;0.50;;;2.40;99.90;;;;;;5001994;28;20406;-72
2023/03/15 04:18:27;;;;;;;2.97;0.50;;;2.50;99.90;;;;;;4999149;28;20035;-72
2023/03/15 04:20:55;;;;;;;2.30;0.70;;;2.50;99.90;;;;;;4995798;28;20033;-72
2023/03/15 04:23:22;;;;;;;2.55;0.90;;;2.50;99.90;;;;;;5021669;28;20045;-73
2023/03/15 04:25:49;;;;;;;3.70;0.73;;;2.50;99.90;;;;;;5000769;28;20046;-73
2023/03/15 04:28:15;;;;;;;2.17;0.60;;;2.50;99.90;;;;;;5004593;28;20145;-72
2023/03/15 04:30:41;;;;;;;5.22;1.42;;;2.50;99.90;;;;;;5000467;28;20058;-73
2023/03/15 04:33:08;;;;;;;2.78;0.60;;;2.50;99.90;;;;;;4999527;28;20038;-74
2023/03/15 04:35:36;;;;;;;6.07;0.65;;;2.50;99.90;;;;;;4999151;28;20155;-72
2023/03/15 04:38:03;;;;;;;2.40;0.30;;;2.50;99.90;;;;;;5000153;28;20570;-73
2023/03/15 04:40:33;;;;;;;5.78;1.13;;;2.50;99.90;;;;;;5007472;28;20111;-74
2023/03/15 04:43:01;;;;;;;2.85;0.50;;;2.50;99.90;;;;;;4997924;28;20053;-73
2023/03/15 04:45:27;;;;;;;2.20;0.45;;;2.40;99.90;;;;;;4997862;28;20048;-72
2023/03/15 04:47:54;;;;;;;2.45;0.52;;;2.40;99.90;;;;;;4996510;28;20030;-73
2023/03/15 04:50:21;;;;;;;6.97;1.02;;;2.40;99.90;;;;;;4994634;28;20049;-73
2023/03/15 04:52:47;;;;;;;1.17;0.35;;;2.40;99.90;;;;;;5011104;28;20060;-72
2023/03/15 04:55:13;;;;;;;3.63;0.43;;;2.40;99.90;;;;;;4995102;28;20116;-73
2023/03/15 04:57:39;;;;;;;8.57;0.90;;;2.30;99.90;;;;;;5009402;28;20554;-73
2023/03/15 05:00:07;;;;;;;5.50;0.60;;;2.30;99.90;;;;;;4994866;28;20041;-72
2023/03/15 05:02:33;;;;;;;3.63;0.47;;;2.30;99.90;;;;;;4998132;28;20048;-72
2023/03/15 05:04:59;;;;;;;1.65;0.70;;;2.30;99.90;;;;;;5000629;28;20077;-74
2023/03/15 05:07:24;;;;;;;4.63;0.50;;;2.30;99.90;;;;;;4996947;28;20050;-72
2023/03/15 05:09:50;;;;;;;5.05;0.70;;;2.30;99.90;;;;;;4996337;28;20034;-72
2023/03/15 05:12:15;;;;;;;3.50;0.70;;;2.30;99.90;;;;;;5000925;28;20041;-74
2023/03/15 05:14:41;;;;;;;9.80;1.23;;;2.40;99.90;;;;;;4999878;28;20065;-73
2023/03/15 05:17:06;;;;;;;3.03;0.47;;;2.40;99.90;;;;;;5004298;28;20058;-73
2023/03/15 05:19:41;;;;;;;11.80;0.77;;;2.40;99.90;;;;;;4994896;28;20072;-73
2023/03/15 05:22:07;;;;;;;6.45;1.00;;;2.40;99.90;;;;;;5024603;28;20453;-74
2023/03/15 05:24:33;;;;;;;5.53;1.08;;;2.40;99.90;;;;;;4994838;28;20038;-73
2023/03/15 05:26:58;;;;;;;6.95;1.35;;;2.40;99.90;;;;;;5007386;28;20050;-72
2023/03/15 05:29:24;;;;;;;3.13;0.63;;;2.40;99.90;;;;;;4996375;28;20507;-72
2023/03/15 05:31:51;;;;;;;8.98;2.80;;;2.40;99.90;;;;;;4994786;28;20111;-72
2023/03/15 05:34:17;;;;;;;3.22;0.77;;;2.50;99.90;;;;;;4996197;28;20502;-73
2023/03/15 05:36:43;;;;;;;3.67;0.47;;;2.50;99.90;;;;;;4991610;28;20100;-74
2023/03/15 05:39:10;;;;;;;2.78;0.40;;;2.50;99.90;;;;;;4996412;28;20042;-73
2023/03/15 05:41:36;;;;;;;4.88;0.60;;;2.60;99.90;;;;;;5007918;28;20126;-72
2023/03/15 05:44:02;;;;;;;4.00;0.80;;;2.70;99.90;;;;;;4994456;28;20136;-73
2023/03/15 05:46:27;;;;;;;5.75;0.75;;;2.70;99.90;;;;;;4991968;28;20496;-71
2023/03/15 05:48:53;;;;;;;6.13;0.98;;;2.80;99.90;;;;;;4994065;28;20030;-73
2023/03/15 05:51:19;;;;;;;8.55;1.40;;;2.80;99.90;;;;;;4992295;28;20481;-73
2023/03/15 05:53:45;;;;;;;3.55;1.40;;;2.80;99.90;;;;;;4996166;28;20042;-73
2023/03/15 05:56:10;;;;;;;10.27;0.95;;;2.80;99.90;;;;;;4998723;28;20030;-72
2023/03/15 05:58:36;;;;;;;8.73;1.05;;;2.90;99.90;;;;;;4997550;28;20041;-73
2023/03/15 06:01:03;;;;;;;4.22;0.55;;;2.90;99.90;;;;;;5002049;28;20145;-73
2023/03/15 06:03:30;;;;;;;2.85;0.70;;;2.90;99.90;;;;;;4998301;28;20150;-73
2023/03/15 06:05:56;;;;;;;5.57;0.47;;;2.90;99.90;;;;;;5007276;28;20054;-73
2023/03/15 06:08:22;;;;;;;4.30;0.20;;;2.80;99.90;;;;;;4994164;28;20131;-73
2023/03/15 06:10:47;;;;;;;3.75;1.00;;;2.80;99.90;;;;;;4999079;28;20038;-72
2023/03/15 06:13:13;;;;;;;2.83;0.57;;;2.70;99.90;;;;;;5002678;28;20040;-72
2023/03/15 06:15:38;;;;;;;2.75;0.30;;;2.60;99.90;;;;;;4999978;28;20068;-76
2023/03/15 06:18:04;;;;;;;4.68;1.40;;;2.60;99.90;;;;;;5001783;28;20567;-72
2023/03/15 06:20:30;;;;;;;3.10;0.22;;;2.50;99.90;;;;;;4999522;28;20030;-73
2023/03/15 06:22:56;;;;;;;4.75;0.55;;;2.50;99.90;;;;;;5001211;28;20034;-72
2023/03/15 06:25:22;;;;;;;4.13;0.50;;;2.50;99.90;;;;;;5005271;28;20208;-75
2023/03/15 06:27:48;;;;;;;3.85;0.40;;;2.50;99.90;;;;;;5003753;28;20121;-74
2023/03/15 06:30:14;;;;;;;2.50;0.68;;;2.50;99.90;;;;;;5001178;28;20506;-73
2023/03/15 06:32:40;;;;;;;2.20;0.75;;;2.60;99.90;;;;;;4997953;28;20030;-73
2023/03/15 06:35:06;;;;;;;4.13;0.50;;;2.50;99.90;;;;;;4999254;28;20061;-73
2023/03/15 06:37:32;;;;;;;1.73;0.80;;;2.50;99.90;;;;;;5001277;28;20095;-73
2023/03/15 06:39:57;;;;;;;1.90;0.68;;;2.60;99.90;;;;;;5006811;28;20050;-73
2023/03/15 06:42:23;;;;;;;3.72;0.35;;;2.60;99.90;;;;;;5002426;28;20437;-74
2023/03/15 06:44:49;;;;;;;4.43;0.60;;;2.60;99.90;;;;;;5000535;28;20740;-74
2023/03/15 06:47:14;;;;;;;0.95;0.20;;;2.60;99.90;;;;;;4999698;28;20046;-73
2023/03/15 06:49:40;;;;;;;5.75;0.57;;;2.60;99.90;;;;;;5002131;28;20034;-72
2023/03/15 06:52:06;;;;;;;2.63;0.60;;;2.60;99.90;;;;;;5004989;28;20741;-73
2023/03/15 06:54:32;;;;;;;1.90;0.20;;;2.70;99.90;;;;;;5003655;28;20401;-73
2023/03/15 06:56:58;;;;;;;2.10;0.20;;;2.70;99.90;;;;;;5002435;28;20034;-73
2023/03/15 06:59:24;;;;;;;2.83;0.30;;;2.70;99.90;;;;;;5005311;28;20053;-72
2023/03/15 07:01:50;;;;;;;1.27;0.20;;;2.70;99.90;;;;;;5007170;28;20029;-73
2023/03/15 07:04:15;;;;;;;2.78;0.30;;;2.70;99.90;;;;;;4996763;28;20038;-73
2023/03/15 07:06:41;;;;;;;0.43;0.20;;;2.70;99.90;;;;;;5004431;28;20065;-75
2023/03/15 07:09:06;;;;;;;1.88;0.80;;;2.60;99.90;;;;;;5004040;28;20045;-73
2023/03/15 07:11:32;;;;;;;3.50;0.40;;;2.60;99.90;;;;;;5002077;28;20034;-73
2023/03/15 07:13:58;;;;;;;3.85;0.50;;;2.70;99.90;;;;;;5002915;28;20117;-73
2023/03/15 07:16:24;;;;;;;2.65;0.80;;;2.70;99.90;;;;;;5003986;28;20490;-72
2023/03/15 07:18:50;;;;;;;0.75;0.20;;;2.70;99.90;;;;;;5005703;28;20153;-73
2023/03/15 07:21:16;;;;;;;2.30;0.50;;;2.90;99.90;;;;;;4998969;28;20395;-73
2023/03/15 07:23:41;;;;;;;5.10;1.15;;;3.00;99.90;;;;;;5001523;28;20041;-75
2023/03/15 07:26:07;;;;;;;5.03;0.90;;;3.10;99.90;;;;;;5008266;28;20482;-73
2023/03/15 07:28:33;;;;;;;4.28;1.30;;;3.20;99.90;;;;;;5004550;28;20526;-74
2023/03/15 07:31:01;;;;;;;4.70;0.40;;;3.20;99.90;;;;;;5002041;28;20048;-74
2023/03/15 07:33:28;;;;;;;1.95;0.47;;;3.40;99.90;;;;;;5007168;28;20172;-73
2023/03/15 07:35:54;;;;;;;2.50;0.38;;;3.40;99.90;;;;;;5011711;28;20449;-72
2023/03/15 07:38:25;;;;;;;0.85;0.10;;;3.50;99.90;;;;;;5004651;28;20065;-73
2023/03/15 07:40:51;;;;;;;3.80;1.02;;;3.70;99.90;;;;;;5002227;28;20026;-73
2023/03/15 07:43:18;;;;;;;9.13;0.50;;;3.90;99.90;;;;;;5000800;28;20041;-74
2023/03/15 07:45:43;;;;;;;2.92;0.50;;;4.00;99.90;;;;;;4996905;28;20069;-74
2023/03/15 07:48:10;;;;;;;11.07;0.90;;;4.10;99.90;;;;;;5007456;28;20058;-73
2023/03/15 07:50:36;;;;;;;3.92;1.10;;;4.10;99.90;;;;;;5005722;28;20203;-75
2023/03/15 07:53:05;;;;;;;1.73;0.10;;;4.20;99.90;;;;;;4998844;28;20060;-75
2023/03/15 07:55:32;;;;;;;2.90;0.30;;;4.30;99.90;;;;;;5002184;28;20089;-73
2023/03/15 07:57:57;;;;;;;1.02;0.55;;;4.40;99.90;;;;;;4997375;28;20103;-72
2023/03/15 08:00:23;;;;;;;4.45;0.63;;;4.60;99.90;;;;;;5001714;28;20053;-72
2023/03/15 08:02:49;;;;;;;1.80;0.30;;;5.00;99.90;;;;;;5003599;28;20038;-74
2023/03/15 08:05:17;;;;;;;4.75;0.50;;;5.30;99.90;;;;;;5006437;28;20049;-73
2023/03/15 08:07:47;;;;;;;3.22;0.60;;;5.70;99.90;;;;;;5003086;28;20038;-72
2023/03/15 08:10:14;;;;;;;2.03;0.32;;;5.80;99.90;;;;;;5002437;28;20030;-74
2023/03/15 08:12:41;;;;;;;1.45;0.25;;;5.80;99.90;;;;;;5003911;28;20029;-72
2023/03/15 08:15:12;;;;;;;5.40;0.52;;;5.80;99.90;;;;;;5001019;28;20049;-73
2023/03/15 08:17:38;;;;;;;4.60;0.77;;;5.70;99.90;;;;;;4999851;28;20037;-75
2023/03/15 08:20:08;;;;;;;3.33;0.73;;;5.70;99.90;;;;;;5002126;28;20152;-75
2023/03/15 08:22:33;;;;;;;4.25;0.30;;;5.60;99.90;;;;;;5003575;28;20038;-73
2023/03/15 08:24:59;;;;;;;3.03;0.47;;;5.60;99.90;;;;;;5000756;28;20092;-74
2023/03/15 08:27:25;;;;;;;5.10;0.75;;;5.60;99.90;;;;;;5000378;28;20041;-74
2023/03/15 08:29:51;;;;;;;1.88;0.20;;;5.60;99.90;;;;;;5003343;28;20049;-73
2023/03/15 08:32:18;;;;;;;1.65;0.30;;;5.60;99.90;;;;;;5003509;28;20117;-74
2023/03/15 08:34:44;;;;;;;1.17;0.30;;;5.60;99.90;;;;;;5004281;28;20127;-73
2023/03/15 08:37:10;;;;;;;2.33;0.20;;;5.70;99.90;;;;;;5002943;28;20661;-73
2023/03/15 08:39:36;;;;;;;3.50;0.30;;;5.80;99.90;;;;;;5003930;28;20037;-72
2023/03/15 08:42:02;;;;;;;5.80;0.40;;;5.80;99.90;;;;;;5000656;28;20541;-73
2023/03/15 08:44:28;;;;;;;2.13;0.60;;;5.80;99.90;;;;;;5001526;28;20072;-73
2023/03/15 08:46:53;;;;;;;2.70;0.60;;;5.90;99.90;;;;;;5003358;28;20091;-74
2023/03/15 08:49:19;;;;;;;2.85;0.55;;;6.00;99.90;;;;;;4998663;28;20078;-74
2023/03/15 08:51:48;;;;;;;3.90;0.30;;;6.00;99.90;;;;;;4999012;28;20367;-73
2023/03/15 08:54:13;;;;;;;2.55;0.22;;;6.00;99.90;;;;;;5002520;28;20379;-72
2023/03/15 08:56:40;;;;;;;3.15;0.22;;;6.10;99.90;;;;;;5002019;28;20052;-74
2023/03/15 08:59:07;;;;;;;1.30;0.20;;;6.20;99.90;;;;;;5003410;28;20038;-73
2023/03/15 09:01:33;;;;;;;3.30;0.40;;;6.30;99.90;;;;;;5001297;28;20049;-73
2023/03/15 09:04:00;;;;;;;2.17;0.88;;;6.40;99.90;;;;;;5003123;28;20077;-72
2023/03/15 09:06:27;;;;;;;5.85;0.50;;;6.50;99.90;;;;;;5001301;28;20045;-74
2023/03/15 09:08:56;;;;;;;5.22;0.85;;;6.50;99.90;;;;;;5002429;28;20165;-74
2023/03/15 09:11:21;;;;;;;5.47;0.50;;;6.50;99.90;;;;;;5000486;28;20498;-75
2023/03/15 09:13:47;;;;;;;1.55;0.28;;;6.60;99.90;;;;;;5002291;28;20100;-74
2023/03/15 09:16:13;;;;;;;7.70;1.52;;;6.70;99.90;;;;;;5000429;28;20113;-73
2023/03/15 09:18:40;;;;;;;4.97;1.35;;;6.70;99.90;;;;;;5001179;28;20038;-73
2023/03/15 09:21:06;;;;;;;7.45;0.50;;;6.80;99.90;;;;;;5002892;28;20090;-73
2023/03/15 09:23:32;;;;;;;5.07;0.47;;;6.80;99.90;;;;;;5003336;28;20050;-73
2023/03/15 09:25:58;;;;;;;2.55;0.40;;;7.00;99.90;;;;;;5003254;28;20071;-73
2023/03/15 09:28:25;;;;;;;6.28;0.40;;;7.00;99.90;;;;;;4999506;28;20117;-73
2023/03/15 09:30:51;;;;;;;1.27;0.15;;;7.10;99.90;;;;;;4999469;28;20932;-73
2023/03/15 09:33:17;;;;;;;3.85;0.52;;;7.10;99.90;;;;;;4999909;28;20115;-72
2023/03/15 09:35:42;;;;;;;3.20;0.40;;;7.20;99.90;;;;;;4999156;28;20034;-74
2023/03/15 09:38:08;;;;;;;2.65;0.38;;;7.10;99.90;;;;;;5000319;28;20398;-73
2023/03/15 09:40:39;;;;;;;2.30;1.10;;;7.20;99.90;;;;;;5000486;28;20045;-73
2023/03/15 09:43:05;;;;;;;2.50;0.80;;;7.20;99.90;;;;;;4999844;28;20057;-74
2023/03/15 09:45:55;;;;;;;2.20;0.45;;;7.10;99.90;;;;;;5000945;28;21503;-73
2023/03/15 09:48:25;;;;;;;2.45;0.57;;;7.20;99.90;;;;;;4998311;28;20494;-72
2023/03/15 09:51:02;;;;;;;3.63;0.63;;;7.10;99.90;;;;;;4998810;28;20048;-73
2023/03/15 09:53:46;;;;;;;4.20;0.85;;;7.30;99.90;;;;;;5000094;28;20120;-74
2023/03/15 09:56:47;;;;;;;1.73;0.30;;;7.40;99.90;;;;;;4999091;28;20411;-73
2023/03/15 09:59:16;;;;;;;2.63;0.40;;;7.40;99.90;;;;;;5013756;28;20037;-72
2023/03/15 10:01:42;;;;;;;4.80;0.60;;;7.40;99.90;;;;;;4999333;28;20168;-74
2023/03/15 10:04:29;;;;;;;3.22;0.52;;;7.50;99.90;;;;;;4999749;28;20069;-74
2023/03/15 10:06:57;;;;;;;4.50;0.40;;;7.70;99.90;;;;;;4997116;28;20064;-74
2023/03/15 10:09:28;;;;;;;2.92;0.40;;;7.80;99.90;;;;;;4999084;28;20030;-74
2023/03/15 10:12:25;;;;;;;2.63;0.68;;;7.80;99.90;;;;;;4996380;28;20434;-73
2023/03/15 10:15:18;;;;;;;2.42;0.22;;;7.90;99.90;;;;;;4999358;28;20058;-73
2023/03/15 10:18:08;;;;;;;6.20;0.40;;;7.90;99.90;;;;;;4999998;28;20117;-73
2023/03/15 10:20:48;;;;;;;2.90;0.40;;;8.10;99.90;;;;;;5000073;28;20065;-72
2023/03/15 10:23:21;;;;;;;4.40;0.50;;;8.10;99.90;;;;;;5013631;28;20030;-72
2023/03/15 10:25:50;;;;;;;6.13;1.30;;;8.10;99.90;;;;;;4999462;28;20041;-73
2023/03/15 10:28:18;;;;;;;3.72;0.38;;;8.00;99.90;;;;;;5000893;28;20113;-74
2023/03/15 10:30:49;;;;;;;4.85;0.40;;;8.00;99.90;;;;;;4999158;28;20536;-73
2023/03/15 10:33:20;;;;;;;;;;;8.00;99.90;;;;;;5000152;28;20386;-72
2023/03/15 10:35:46;;;;;;;3.15;0.38;;;8.00;99.90;;;;;;4999712;28;19956;-73
2023/03/15 10:38:20;;;;;;;0.98;0.30;;;8.10;99.90;;;;;;5000700;28;20042;-74
2023/03/15 10:40:57;;;;;;;4.47;0.30;;;8.10;99.90;;;;;;4999337;28;20117;-72
2023/03/15 10:43:24;;;;;;;1.65;0.50;;;8.20;99.90;;;;;;4999649;28;20026;-73
2023/03/15 10:46:04;;;;;;;5.90;0.85;;;8.10;99.90;;;;;;4999419;28;20061;-72
2023/03/15 10:48:38;;;;;;;9.25;0.98;;;8.00;99.90;;;;;;5000873;28;20045;-72
2023/03/15 10:51:34;;;;;;;3.60;0.68;;;7.90;99.90;;;;;;4995738;28;20057;-73
2023/03/15 10:54:09;;;;;;;3.42;0.40;;;7.90;99.90;;;;;;4997799;28;20041;-73
2023/03/15 10:56:56;;;;;;;5.32;0.50;;;8.00;99.90;;;;;;4999068;28;20073;-72
2023/03/15 10:59:25;;;;;;;5.82;0.60;;;8.20;99.90;;;;;;4999174;28;20038;-72
2023/03/15 11:02:20;;;;;;;4.82;0.47;;;8.20;99.90;;;;;;4999757;28;20037;-73
2023/03/15 11:05:05;;;;;;;3.25;0.70;;;8.30;99.90;;;;;;4999302;28;20088;-72
2023/03/15 11:07:34;;;;;;;4.00;1.70;;;8.40;99.90;;;;;;4997051;28;20064;-72
2023/03/15 11:10:02;;;;;;;2.15;0.70;;;8.40;99.90;;;;;;4999810;28;20129;-72
2023/03/15 11:12:30;;;;;;;7.35;0.40;;;8.30;99.90;;;;;;4998265;28;20813;-73
2023/03/15 11:15:03;;;;;;;2.30;0.30;;;8.30;99.90;;;;;;4999734;28;21426;-74
2023/03/15 11:17:33;;;;;;;0.70;0.13;;;8.40;99.90;;;;;;4998357;28;20886;-72
2023/03/15 11:20:24;;;;;;;1.67;0.20;;;8.40;99.90;;;;;;4998552;28;20080;-73
2023/03/15 11:22:52;;;;;;;1.27;0.40;;;8.30;99.90;;;;;;5001471;28;20038;-74
2023/03/15 11:25:19;;;;;;;3.42;0.50;;;8.30;99.90;;;;;;5001584;28;20045;-73
2023/03/15 11:27:50;;;;;;;2.20;0.25;;;8.30;99.90;;;;;;5002930;28;20037;-73
2023/03/15 11:30:17;;;;;;;0.63;0.28;;;8.30;99.90;;;;;;5002041;28;20038;-73
2023/03/15 11:32:45;;;;;;;3.65;0.70;;;8.30;99.90;;;;;;5002140;28;20060;-72
2023/03/15 11:35:21;;;;;;;3.17;0.32;;;8.40;99.90;;;;;;5002752;28;20034;-73
2023/03/15 11:37:52;;;;;;;3.70;0.63;;;8.40;99.90;;;;;;5002681;28;20129;-73
2023/03/15 11:40:41;;;;;;;1.27;0.30;;;8.40;99.90;;;;;;5002075;28;20041;-72
2023/03/15 11:43:44;;;;;;;0.95;0.20;;;8.30;99.90;;;;;;5001919;28;20119;-73
2023/03/15 11:46:20;;;;;;;4.00;0.60;;;8.40;99.90;;;;;;4993747;28;20066;-73
2023/03/15 11:48:51;;;;;;;2.33;0.68;;;8.40;99.90;;;;;;4994211;28;20756;-74
2023/03/15 11:51:17;;;;;;;;;;;8.40;99.90;;;;;;4999522;28;20090;-72
2023/03/15 11:54:01;;;;;;;2.88;0.35;;;8.40;99.90;;;;;;4999071;28;20340;-71
2023/03/15 11:56:47;;;;;;;3.53;0.40;;;8.30;99.70;;;;;;5000368;28;20069;-73
2023/03/15 11:59:24;;;;;;;3.10;0.35;;;8.30;99.90;;;;;;5000400;28;20754;-73
2023/03/15 12:01:56;;;;;;;2.78;0.28;;;8.40;99.80;;;;;;4997071;28;20040;-73
2023/03/15 12:04:24;;;;;;;2.70;0.17;;;8.30;99.00;;;;;;5000786;28;20050;-73
2023/03/15 12:06:55;;;;;;;0.70;0.20;;;8.30;99.70;;;;;;5002304;28;20079;-72
2023/03/15 12:09:36;;;;;;;2.40;0.95;;;8.30;99.60;;;;;;5002232;28;20646;-72
2023/03/15 12:12:05;;;;;;;3.22;0.20;;;8.30;99.00;;;;;;4999503;28;20037;-73
2023/03/15 12:14:33;;;;;;;2.72;0.35;;;8.40;99.70;;;;;;4999204;28;20647;-73
2023/03/15 12:17:25;;;;;;;2.22;0.32;;;8.50;99.90;;;;;;5001208;28;20121;-72
2023/03/15 12:20:10;;;;;;;3.42;0.40;;;8.50;99.90;;;;;;5000511;28;20655;-73
2023/03/15 12:22:40;;;;;;;3.65;0.57;;;8.50;99.90;;;;;;5000974;28;20030;-73
2023/03/15 12:25:33;;;;;;;4.17;0.60;;;8.60;99.90;;;;;;5000012;28;20033;-72
2023/03/15 12:28:03;;;;;;;3.05;0.70;;;8.60;99.90;;;;;;5000329;28;20121;-72
2023/03/15 12:30:30;;;;;;;;;;;8.60;99.90;;;;;;4999276;28;20126;-72
2023/03/15 12:32:57;;;;;;;4.35;0.50;;;8.60;99.80;;;;;;5001192;28;20393;-72
2023/03/15 12:35:28;;;;;;;1.70;0.28;;;8.60;99.90;;;;;;5001255;28;20034;-72
2023/03/15 12:37:55;;;;;;;2.40;0.85;;;8.60;98.80;;;;;;4999524;28;20461;-73
2023/03/15 12:40:21;;;;;;;3.55;0.40;;;8.60;99.50;;;;;;4999410;28;20050;-73
2023/03/15 12:42:47;;;;;;;1.75;0.40;;;8.60;99.90;;;;;;5000092;28;20131;-73
2023/03/15 12:45:18;;;;;;;2.45;0.68;;;8.60;99.90;;;;;;5002732;28;20125;-74
2023/03/15 12:47:44;;;;;;;0.93;0.20;;;8.70;99.90;;;;;;4999105;28;20061;-72
2023/03/15 12:50:53;;;;;;;3.85;0.40;;;8.70;99.90;;;;;;5002202;28;20548;-72
2023/03/15 12:53:21;;;;;;;3.90;0.30;;;8.70;99.90;;;;;;4937963;28;20047;-72
2023/03/15 12:55:48;;;;;;;1.27;0.55;;;8.70;99.90;;;;;;4935324;28;20145;-73
2023/03/15 12:58:17;;;;;;;3.90;0.47;;;8.70;99.90;;;;;;4972090;28;20033;-73
2023/03/15 13:00:43;;;;;;;1.90;0.40;;;8.70;99.90;;;;;;4999324;28;20038;-72
2023/03/15 13:03:20;;;;;;;5.10;0.30;;;8.80;99.90;;;;;;5001336;28;20555;-73
2023/03/15 13:06:11;;;;;;;1.23;0.20;;;8.90;99.30;;;;;;4997629;28;20040;-73
2023/03/15 13:08:52;;;;;;;3.55;0.40;;;8.80;99.80;;;;;;4999799;28;20514;-72